PWSweather.com
Personal Weather Stations
Station Observations
WXCHAD
Chadbourn, NC

Chadbourn, NC

Lat: 34.3221129, Lon: -78.8269664

Elevation: 78

Station Type: La Crosse Technology WS2800

High Low Average
Temperature 97.0°F36.1°C 63.2°F17.3°C 80.2°F26.8°C
Dew Point 74.1°F23.4°C 59.1°F15.1°C 66.8°F19.3°C
Winds 4.3 mph 6.9 kmh Calm Calm 2.0 mph ESE3.2 kmh ESE
Wind Gusts 8.3 mph13.4 kmh -- 3.0 mph4.8 kmh
Humidity 88% 44% 67%
Pressure 30.18 in1022.0 mb 30.15 in1021.0 mb -
Precipitation 0.05 in1.3 mm - -
Hour Temp Dew Point Humidity Winds Wind Gusts Pressure Precip Precip Rate Daily Precip Total
12:00 AM 66.1°F18.9°C 61.4°F16.3°C 85% Calm Calm 0.4 mph0.6 kmh 30.18 in1022.0 mb 0.00 in0.0 mm 0.00 in/hr0.0 mm/hr 0.00 in0.0 mm
12:06 AM 65.9°F18.8°C 61.6°F16.4°C 86% Calm Calm 0.9 mph1.4 kmh 30.18 in1022.0 mb 0.00 in0.0 mm 0.00 in/hr0.0 mm/hr 0.00 in0.0 mm
12:11 AM 65.7°F18.7°C 61.4°F16.3°C 86% 0.2 mph NW0.3 kmh NW 0.9 mph1.4 kmh 30.18 in1022.0 mb 0.00 in0.0 mm 0.00 in/hr0.0 mm/hr 0.00 in0.0 mm
12:16 AM 65.5°F18.6°C 61.2°F16.2°C 86% Calm Calm 0.9 mph1.4 kmh 30.18 in1022.0 mb 0.00 in0.0 mm 0.00 in/hr0.0 mm/hr 0.00 in0.0 mm
12:21 AM 65.5°F18.6°C 61.6°F16.4°C 87% 1.0 mph W1.6 kmh W 1.3 mph2.1 kmh 30.17 in1021.7 mb 0.00 in0.0 mm 0.00 in/hr0.0 mm/hr 0.00 in0.0 mm
12:26 AM 65.2°F18.4°C 61.2°F16.2°C 87% 0.6 mph WNW1.0 kmh WNW 1.3 mph2.1 kmh 30.17 in1021.7 mb 0.00 in0.0 mm 0.00 in/hr0.0 mm/hr 0.00 in0.0 mm
12:31 AM 65.2°F18.4°C 61.2°F16.2°C 87% Calm Calm 1.3 mph2.1 kmh 30.17 in1021.7 mb 0.00 in0.0 mm 0.00 in/hr0.0 mm/hr 0.00 in0.0 mm
12:36 AM 65.0°F18.3°C 61.0°F16.1°C 87% Calm Calm -- 30.17 in1021.7 mb 0.00 in0.0 mm 0.00 in/hr0.0 mm/hr 0.00 in0.0 mm
12:41 AM 64.8°F18.2°C 60.8°F16.0°C 87% 1.0 mph N1.6 kmh N 1.1 mph1.8 kmh 30.18 in1022.0 mb 0.00 in0.0 mm 0.00 in/hr0.0 mm/hr 0.00 in0.0 mm
12:46 AM 65.2°F18.4°C 61.6°F16.4°C 88% Calm Calm 1.3 mph2.1 kmh 30.18 in1022.0 mb 0.00 in0.0 mm 0.00 in/hr0.0 mm/hr 0.00 in0.0 mm
12:51 AM 66.2°F19.0°C 62.6°F17.0°C 88% 0.4 mph 0.6 kmh 1.3 mph2.1 kmh 30.18 in1022.0 mb 0.00 in0.0 mm 0.00 in/hr0.0 mm/hr 0.00 in0.0 mm
12:56 AM 66.2°F19.0°C 62.2°F16.8°C 87% Calm Calm 0.7 mph1.1 kmh 30.18 in1022.0 mb 0.00 in0.0 mm 0.00 in/hr0.0 mm/hr 0.00 in0.0 mm
01:01 AM 65.9°F18.8°C 61.8°F16.6°C 87% Calm Calm 0.9 mph1.4 kmh 30.18 in1022.0 mb 0.00 in0.0 mm 0.00 in/hr0.0 mm/hr 0.00 in0.0 mm
01:06 AM 65.5°F18.6°C 61.6°F16.4°C 87% 3.4 mph N5.5 kmh N 3.6 mph5.8 kmh 30.18 in1022.0 mb 0.00 in0.0 mm 0.00 in/hr0.0 mm/hr 0.00 in0.0 mm
01:11 AM 65.3°F18.5°C 61.4°F16.3°C 87% 2.5 mph NNE4.0 kmh NNE 3.8 mph6.1 kmh 30.18 in1022.0 mb 0.00 in0.0 mm 0.00 in/hr0.0 mm/hr 0.00 in0.0 mm
01:16 AM 65.0°F18.3°C 60.7°F15.9°C 86% 2.2 mph N3.5 kmh N 4.5 mph7.2 kmh 30.18 in1022.0 mb 0.00 in0.0 mm 0.00 in/hr0.0 mm/hr 0.00 in0.0 mm
01:21 AM 65.0°F18.3°C 60.7°F15.9°C 86% 1.2 mph NNE1.9 kmh NNE 4.5 mph7.2 kmh 30.17 in1021.7 mb 0.00 in0.0 mm 0.00 in/hr0.0 mm/hr 0.00 in0.0 mm
01:26 AM 65.0°F18.3°C 60.7°F15.9°C 86% 3.1 mph NNE5.0 kmh NNE 3.1 mph5.0 kmh 30.17 in1021.7 mb 0.00 in0.0 mm 0.00 in/hr0.0 mm/hr 0.00 in0.0 mm
01:31 AM 64.8°F18.2°C 60.6°F15.9°C 86% 2.9 mph NE4.7 kmh NE 3.6 mph5.8 kmh 30.17 in1021.7 mb 0.00 in0.0 mm 0.00 in/hr0.0 mm/hr 0.00 in0.0 mm
01:36 AM 64.8°F18.2°C 60.6°F15.9°C 86% 1.9 mph NE3.1 kmh NE 3.6 mph5.8 kmh 30.17 in1021.7 mb 0.00 in0.0 mm 0.00 in/hr0.0 mm/hr 0.00 in0.0 mm
01:41 AM 64.8°F18.2°C 60.6°F15.9°C 86% 2.0 mph N3.2 kmh N 2.5 mph4.0 kmh 30.17 in1021.7 mb 0.00 in0.0 mm 0.00 in/hr0.0 mm/hr 0.00 in0.0 mm
01:46 AM 64.6°F18.1°C 60.4°F15.8°C 86% 2.0 mph NNE3.2 kmh NNE 3.4 mph5.5 kmh 30.17 in1021.7 mb 0.00 in0.0 mm 0.00 in/hr0.0 mm/hr 0.00 in0.0 mm
01:51 AM 64.6°F18.1°C 60.4°F15.8°C 86% 1.7 mph NE2.7 kmh NE 3.4 mph5.5 kmh 30.18 in1022.0 mb 0.00 in0.0 mm 0.00 in/hr0.0 mm/hr 0.00 in0.0 mm
01:56 AM 64.6°F18.1°C 60.4°F15.8°C 86% 1.8 mph NNE2.9 kmh NNE 2.5 mph4.0 kmh 30.18 in1022.0 mb 0.00 in0.0 mm 0.00 in/hr0.0 mm/hr 0.00 in0.0 mm
02:01 AM 64.6°F18.1°C 60.4°F15.8°C 86% 0.8 mph NE1.3 kmh NE 2.5 mph4.0 kmh 30.17 in1021.7 mb 0.00 in0.0 mm 0.00 in/hr0.0 mm/hr 0.00 in0.0 mm
02:06 AM 64.6°F18.1°C 60.0°F15.6°C 85% 0.9 mph E1.4 kmh E 2.5 mph4.0 kmh 30.17 in1021.7 mb 0.00 in0.0 mm 0.00 in/hr0.0 mm/hr 0.00 in0.0 mm
02:11 AM 64.4°F18.0°C 60.2°F15.7°C 86% 0.6 mph ESE1.0 kmh ESE 1.3 mph2.1 kmh 30.17 in1021.7 mb 0.00 in0.0 mm 0.00 in/hr0.0 mm/hr 0.00 in0.0 mm
02:16 AM 65.5°F18.6°C 61.2°F16.2°C 86% Calm Calm 0.7 mph1.1 kmh 30.16 in1021.3 mb 0.00 in0.0 mm 0.00 in/hr0.0 mm/hr 0.00 in0.0 mm
02:21 AM 65.7°F18.7°C 61.0°F16.1°C 85% 0.4 mph E0.6 kmh E 0.4 mph0.6 kmh 30.17 in1021.7 mb 0.00 in0.0 mm 0.00 in/hr0.0 mm/hr 0.00 in0.0 mm
02:26 AM 65.3°F18.5°C 60.8°F16.0°C 85% Calm Calm 0.4 mph0.6 kmh 30.16 in1021.3 mb 0.00 in0.0 mm 0.00 in/hr0.0 mm/hr 0.00 in0.0 mm
02:31 AM 65.2°F18.4°C 60.6°F15.9°C 85% Calm Calm -- 30.16 in1021.3 mb 0.00 in0.0 mm 0.00 in/hr0.0 mm/hr 0.00 in0.0 mm
02:36 AM 64.8°F18.2°C 60.2°F15.7°C 85% Calm Calm -- 30.15 in1021.0 mb 0.00 in0.0 mm 0.00 in/hr0.0 mm/hr 0.00 in0.0 mm
02:41 AM 64.4°F18.0°C 59.9°F15.5°C 85% Calm Calm -- 30.16 in1021.3 mb 0.00 in0.0 mm 0.00 in/hr0.0 mm/hr 0.00 in0.0 mm
02:46 AM 64.3°F17.9°C 59.7°F15.4°C 85% 1.1 mph NNW1.8 kmh NNW 1.1 mph1.8 kmh 30.16 in1021.3 mb 0.00 in0.0 mm 0.00 in/hr0.0 mm/hr 0.00 in0.0 mm
02:51 AM 63.9°F17.7°C 59.3°F15.2°C 85% 0.4 mph 0.6 kmh 1.1 mph1.8 kmh 30.16 in1021.3 mb 0.00 in0.0 mm 0.00 in/hr0.0 mm/hr 0.00 in0.0 mm
02:56 AM 63.7°F17.6°C 59.5°F15.3°C 86% 1.5 mph NNE2.4 kmh NNE 2.0 mph3.2 kmh 30.16 in1021.3 mb 0.00 in0.0 mm 0.00 in/hr0.0 mm/hr 0.00 in0.0 mm
03:01 AM 63.5°F17.5°C 59.3°F15.2°C 86% 0.6 mph NNE1.0 kmh NNE 2.0 mph3.2 kmh 30.16 in1021.3 mb 0.00 in0.0 mm 0.00 in/hr0.0 mm/hr 0.00 in0.0 mm
03:06 AM 63.4°F17.4°C 59.1°F15.1°C 86% 2.3 mph N3.7 kmh N 2.5 mph4.0 kmh 30.16 in1021.3 mb 0.00 in0.0 mm 0.00 in/hr0.0 mm/hr 0.00 in0.0 mm
03:11 AM 63.4°F17.4°C 59.1°F15.1°C 86% 0.7 mph NNE1.1 kmh NNE 2.7 mph4.3 kmh 30.16 in1021.3 mb 0.00 in0.0 mm 0.00 in/hr0.0 mm/hr 0.00 in0.0 mm
03:16 AM 63.2°F17.3°C 59.3°F15.2°C 87% 1.0 mph N1.6 kmh N 2.7 mph4.3 kmh 30.17 in1021.7 mb 0.00 in0.0 mm 0.00 in/hr0.0 mm/hr 0.00 in0.0 mm
02:23 PM 86.2°F30.1°C 71.6°F22.0°C 62% 3.0 mph SE4.8 kmh SE 3.8 mph6.1 kmh 30.18 in1022.0 mb 0.00 in0.0 mm 0.00 in/hr0.0 mm/hr 0.05 in1.3 mm
02:28 PM 87.5°F30.8°C 72.5°F22.5°C 61% 2.9 mph ENE4.7 kmh ENE 4.7 mph7.6 kmh 30.18 in1022.0 mb 0.00 in0.0 mm 0.00 in/hr0.0 mm/hr 0.05 in1.3 mm
02:34 PM 88.2°F31.2°C 73.2°F22.9°C 61% 2.3 mph E3.7 kmh E 4.7 mph7.6 kmh 30.18 in1022.0 mb 0.00 in0.0 mm 0.00 in/hr0.0 mm/hr 0.05 in1.3 mm
02:39 PM 87.8°F31.0°C 71.3°F21.8°C 58% 3.1 mph ENE5.0 kmh ENE 4.0 mph6.4 kmh 30.18 in1022.0 mb 0.00 in0.0 mm 0.00 in/hr0.0 mm/hr 0.05 in1.3 mm
02:44 PM 87.5°F30.8°C 70.4°F21.3°C 57% 1.0 mph NE1.6 kmh NE 4.0 mph6.4 kmh 30.18 in1022.0 mb 0.00 in0.0 mm 0.00 in/hr0.0 mm/hr 0.05 in1.3 mm
02:49 PM 86.6°F30.3°C 69.5°F20.8°C 57% 2.0 mph W3.2 kmh W 6.0 mph9.7 kmh 30.18 in1022.0 mb 0.00 in0.0 mm 0.00 in/hr0.0 mm/hr 0.05 in1.3 mm
02:54 PM 86.2°F30.1°C 70.7°F21.5°C 60% 2.8 mph NE4.5 kmh NE 7.6 mph12.2 kmh 30.18 in1022.0 mb 0.00 in0.0 mm 0.00 in/hr0.0 mm/hr 0.05 in1.3 mm
02:59 PM 87.3°F30.7°C 71.3°F21.8°C 59% 1.5 mph SE2.4 kmh SE 8.3 mph13.4 kmh 30.18 in1022.0 mb 0.00 in0.0 mm 0.00 in/hr0.0 mm/hr 0.05 in1.3 mm
03:04 PM 88.6°F31.4°C 71.4°F21.9°C 57% 3.0 mph E4.8 kmh E 8.3 mph13.4 kmh 30.18 in1022.0 mb 0.00 in0.0 mm 0.00 in/hr0.0 mm/hr 0.05 in1.3 mm
03:09 PM 89.5°F31.9°C 72.2°F22.3°C 57% 1.0 mph SW1.6 kmh SW 4.0 mph6.4 kmh 30.17 in1021.7 mb 0.00 in0.0 mm 0.00 in/hr0.0 mm/hr 0.05 in1.3 mm
03:14 PM 89.8°F32.1°C 72.0°F22.2°C 56% 2.4 mph ENE3.9 kmh ENE 3.1 mph5.0 kmh 30.17 in1021.7 mb 0.00 in0.0 mm 0.00 in/hr0.0 mm/hr 0.05 in1.3 mm
03:19 PM 89.6°F32.0°C 72.4°F22.4°C 57% 2.2 mph ESE3.5 kmh ESE 4.9 mph7.9 kmh 30.18 in1022.0 mb 0.00 in0.0 mm 0.00 in/hr0.0 mm/hr 0.05 in1.3 mm
03:24 PM 89.5°F31.9°C 71.6°F22.0°C 56% 0.8 mph SSE1.3 kmh SSE 4.9 mph7.9 kmh 30.18 in1022.0 mb 0.00 in0.0 mm 0.00 in/hr0.0 mm/hr 0.05 in1.3 mm
03:29 PM 88.9°F31.6°C 71.2°F21.8°C 56% 0.4 mph NNE0.6 kmh NNE 4.5 mph7.2 kmh 30.17 in1021.7 mb 0.00 in0.0 mm 0.00 in/hr0.0 mm/hr 0.05 in1.3 mm
03:34 PM 88.0°F31.1°C 69.3°F20.7°C 54% 0.9 mph SW1.4 kmh SW 4.5 mph7.2 kmh 30.17 in1021.7 mb 0.00 in0.0 mm 0.00 in/hr0.0 mm/hr 0.05 in1.3 mm
03:39 PM 88.2°F31.2°C 70.6°F21.4°C 56% 4.1 mph ENE6.6 kmh ENE 4.7 mph7.6 kmh 30.17 in1021.7 mb 0.00 in0.0 mm 0.00 in/hr0.0 mm/hr 0.05 in1.3 mm
03:44 PM 88.4°F31.3°C 70.1°F21.2°C 55% 0.9 mph N1.4 kmh N 4.7 mph7.6 kmh 30.17 in1021.7 mb 0.00 in0.0 mm 0.00 in/hr0.0 mm/hr 0.05 in1.3 mm
03:49 PM 88.6°F31.4°C 70.8°F21.6°C 56% 1.4 mph ESE2.3 kmh ESE 2.5 mph4.0 kmh 30.17 in1021.7 mb 0.00 in0.0 mm 0.00 in/hr0.0 mm/hr 0.05 in1.3 mm
03:54 PM 89.3°F31.8°C 70.9°F21.6°C 55% 0.6 mph SE1.0 kmh SE 2.5 mph4.0 kmh 30.17 in1021.7 mb 0.00 in0.0 mm 0.00 in/hr0.0 mm/hr 0.05 in1.3 mm
03:59 PM 90.0°F32.2°C 72.2°F22.3°C 56% 2.9 mph SW4.7 kmh SW 3.6 mph5.8 kmh 30.17 in1021.7 mb 0.00 in0.0 mm 0.00 in/hr0.0 mm/hr 0.05 in1.3 mm
04:04 PM 91.1°F32.8°C 73.1°F22.8°C 56% 1.3 mph SE2.1 kmh SE 3.6 mph5.8 kmh 30.17 in1021.7 mb 0.00 in0.0 mm 0.00 in/hr0.0 mm/hr 0.05 in1.3 mm
04:09 PM 91.3°F32.9°C 71.1°F21.7°C 52% 1.6 mph NE2.6 kmh NE 4.5 mph7.2 kmh 30.17 in1021.7 mb 0.00 in0.0 mm 0.00 in/hr0.0 mm/hr 0.05 in1.3 mm
04:14 PM 91.1°F32.8°C 71.5°F21.9°C 53% 1.8 mph S2.9 kmh S 4.5 mph7.2 kmh 30.17 in1021.7 mb 0.00 in0.0 mm 0.00 in/hr0.0 mm/hr 0.05 in1.3 mm
04:19 PM 90.5°F32.5°C 71.6°F22.0°C 54% 2.7 mph SW4.3 kmh SW 3.1 mph5.0 kmh 30.17 in1021.7 mb 0.00 in0.0 mm 0.00 in/hr0.0 mm/hr 0.05 in1.3 mm
04:24 PM 91.4°F33.0°C 71.3°F21.8°C 52% 0.9 mph SE1.4 kmh SE 3.1 mph5.0 kmh 30.17 in1021.7 mb 0.00 in0.0 mm 0.00 in/hr0.0 mm/hr 0.05 in1.3 mm
04:29 PM 92.5°F33.6°C 71.2°F21.8°C 50% 2.8 mph SSE4.5 kmh SSE 3.8 mph6.1 kmh 30.17 in1021.7 mb 0.00 in0.0 mm 0.00 in/hr0.0 mm/hr 0.05 in1.3 mm
04:34 PM 94.0°F34.4°C 73.1°F22.8°C 51% 3.7 mph SE6.0 kmh SE 4.9 mph7.9 kmh 30.17 in1021.7 mb 0.00 in0.0 mm 0.00 in/hr0.0 mm/hr 0.05 in1.3 mm
04:39 PM 95.0°F35.0°C 73.6°F23.1°C 50% 3.3 mph S5.3 kmh S 4.9 mph7.9 kmh 30.17 in1021.7 mb 0.00 in0.0 mm 0.00 in/hr0.0 mm/hr 0.05 in1.3 mm
04:44 PM 95.8°F35.4°C 73.6°F23.1°C 49% 4.3 mph SSW6.9 kmh SSW 5.4 mph8.7 kmh 30.17 in1021.7 mb 0.00 in0.0 mm 0.00 in/hr0.0 mm/hr 0.05 in1.3 mm
04:49 PM 96.3°F35.7°C 74.1°F23.4°C 49% 3.0 mph SE4.8 kmh SE 5.4 mph8.7 kmh 30.17 in1021.7 mb 0.00 in0.0 mm 0.00 in/hr0.0 mm/hr 0.05 in1.3 mm
04:54 PM 95.4°F35.2°C 70.7°F21.5°C 45% 3.0 mph SE4.8 kmh SE 5.4 mph8.7 kmh 30.17 in1021.7 mb 0.00 in0.0 mm 0.00 in/hr0.0 mm/hr 0.05 in1.3 mm
05:00 PM 94.3°F34.6°C 70.9°F21.6°C 47% 2.7 mph SE4.3 kmh SE 5.4 mph8.7 kmh 30.17 in1021.7 mb 0.00 in0.0 mm 0.00 in/hr0.0 mm/hr 0.05 in1.3 mm
05:05 PM 95.0°F35.0°C 72.3°F22.4°C 48% 3.0 mph SSW4.8 kmh SSW 4.0 mph6.4 kmh 30.17 in1021.7 mb 0.00 in0.0 mm 0.00 in/hr0.0 mm/hr 0.05 in1.3 mm
05:09 PM 95.4°F35.2°C 72.6°F22.6°C 48% 3.9 mph SW6.3 kmh SW 4.5 mph7.2 kmh 30.17 in1021.7 mb 0.00 in0.0 mm 0.00 in/hr0.0 mm/hr 0.05 in1.3 mm
05:14 PM 95.8°F35.4°C 72.9°F22.7°C 48% 2.4 mph SW3.9 kmh SW 4.5 mph7.2 kmh 30.17 in1021.7 mb 0.00 in0.0 mm 0.00 in/hr0.0 mm/hr 0.05 in1.3 mm
05:20 PM 95.8°F35.4°C 72.3°F22.4°C 47% 1.3 mph SSE2.1 kmh SSE 2.5 mph4.0 kmh 30.17 in1021.7 mb 0.00 in0.0 mm 0.00 in/hr0.0 mm/hr 0.05 in1.3 mm
05:25 PM 96.3°F35.7°C 72.7°F22.6°C 47% 2.4 mph SSE3.9 kmh SSE 3.1 mph5.0 kmh 30.17 in1021.7 mb 0.00 in0.0 mm 0.00 in/hr0.0 mm/hr 0.05 in1.3 mm
05:30 PM 96.7°F35.9°C 73.1°F22.8°C 47% 2.7 mph S4.3 kmh S 3.1 mph5.0 kmh 30.17 in1021.7 mb 0.00 in0.0 mm 0.00 in/hr0.0 mm/hr 0.05 in1.3 mm
05:35 PM 96.7°F35.9°C 71.1°F21.7°C 44% 2.7 mph ESE4.3 kmh ESE 4.7 mph7.6 kmh 30.17 in1021.7 mb 0.00 in0.0 mm 0.00 in/hr0.0 mm/hr 0.05 in1.3 mm
05:40 PM 96.7°F35.9°C 71.7°F22.1°C 45% 3.1 mph ESE5.0 kmh ESE 4.7 mph7.6 kmh 30.17 in1021.7 mb 0.00 in0.0 mm 0.00 in/hr0.0 mm/hr 0.05 in1.3 mm
05:45 PM 97.0°F36.1°C 72.1°F22.3°C 45% 2.0 mph SE3.2 kmh SE 4.3 mph6.9 kmh 30.17 in1021.7 mb 0.00 in0.0 mm 0.00 in/hr0.0 mm/hr 0.05 in1.3 mm
05:50 PM 97.0°F36.1°C 72.1°F22.3°C 45% 3.0 mph SE4.8 kmh SE 4.3 mph6.9 kmh 30.17 in1021.7 mb 0.00 in0.0 mm 0.00 in/hr0.0 mm/hr 0.05 in1.3 mm
05:55 PM 96.8°F36.0°C 71.9°F22.2°C 45% 2.8 mph ESE4.5 kmh ESE 4.0 mph6.4 kmh 30.17 in1021.7 mb 0.00 in0.0 mm 0.00 in/hr0.0 mm/hr 0.05 in1.3 mm
06:00 PM 96.8°F36.0°C 71.9°F22.2°C 45% 2.8 mph ESE4.5 kmh ESE 4.0 mph6.4 kmh 30.17 in1021.7 mb 0.00 in0.0 mm 0.00 in/hr0.0 mm/hr 0.05 in1.3 mm
06:05 PM 96.1°F35.6°C 71.3°F21.8°C 45% 1.8 mph ESE2.9 kmh ESE 3.6 mph5.8 kmh 30.18 in1022.0 mb 0.00 in0.0 mm 0.00 in/hr0.0 mm/hr 0.05 in1.3 mm
06:10 PM 95.0°F35.0°C 70.9°F21.6°C 46% 0.4 mph NE0.6 kmh NE 2.0 mph3.2 kmh 30.18 in1022.0 mb 0.00 in0.0 mm 0.00 in/hr0.0 mm/hr 0.05 in1.3 mm
06:15 PM 93.8°F34.3°C 70.4°F21.3°C 47% 0.8 mph ENE1.3 kmh ENE 1.8 mph2.9 kmh 30.17 in1021.7 mb 0.00 in0.0 mm 0.00 in/hr0.0 mm/hr 0.05 in1.3 mm
06:20 PM 92.7°F33.7°C 70.0°F21.1°C 48% 0.6 mph ESE1.0 kmh ESE 1.1 mph1.8 kmh 30.17 in1021.7 mb 0.00 in0.0 mm 0.00 in/hr0.0 mm/hr 0.05 in1.3 mm
06:25 PM 91.8°F33.2°C 69.8°F21.0°C 49% 1.5 mph SE2.4 kmh SE 2.2 mph3.5 kmh 30.18 in1022.0 mb 0.00 in0.0 mm 0.00 in/hr0.0 mm/hr 0.05 in1.3 mm
06:30 PM 90.9°F32.7°C 69.8°F21.0°C 50% 0.8 mph ESE1.3 kmh ESE 2.2 mph3.5 kmh 30.17 in1021.7 mb 0.00 in0.0 mm 0.00 in/hr0.0 mm/hr 0.05 in1.3 mm
06:35 PM 89.3°F31.8°C 68.8°F20.4°C 51% 1.9 mph SSE3.1 kmh SSE 3.4 mph5.5 kmh 30.18 in1022.0 mb 0.00 in0.0 mm 0.00 in/hr0.0 mm/hr 0.05 in1.3 mm
06:40 PM 88.2°F31.2°C 69.0°F20.6°C 53% 2.7 mph S4.3 kmh S 3.4 mph5.5 kmh 30.18 in1022.0 mb 0.00 in0.0 mm 0.00 in/hr0.0 mm/hr 0.05 in1.3 mm
06:45 PM 87.3°F30.7°C 68.6°F20.3°C 54% 1.8 mph S2.9 kmh S 3.4 mph5.5 kmh 30.18 in1022.0 mb 0.00 in0.0 mm 0.00 in/hr0.0 mm/hr 0.05 in1.3 mm
06:50 PM 86.2°F30.1°C 68.1°F20.1°C 55% 3.1 mph S5.0 kmh S 5.6 mph9.0 kmh 30.18 in1022.0 mb 0.00 in0.0 mm 0.00 in/hr0.0 mm/hr 0.05 in1.3 mm
06:55 PM 85.1°F29.5°C 68.2°F20.1°C 57% 5.7 mph S9.2 kmh S 5.8 mph9.3 kmh 30.19 in1022.4 mb 0.00 in0.0 mm 0.00 in/hr0.0 mm/hr 0.05 in1.3 mm
07:01 PM 84.2°F29.0°C 68.9°F20.5°C 60% 1.6 mph SW2.6 kmh SW 6.7 mph10.8 kmh 30.19 in1022.4 mb 0.00 in0.0 mm 0.00 in/hr0.0 mm/hr 0.05 in1.3 mm
07:06 PM 83.5°F28.6°C 69.1°F20.6°C 62% 2.5 mph SSW4.0 kmh SSW 6.7 mph10.8 kmh 30.19 in1022.4 mb 0.00 in0.0 mm 0.00 in/hr0.0 mm/hr 0.05 in1.3 mm
07:11 PM 83.0°F28.3°C 68.1°F20.1°C 61% 5.5 mph S8.9 kmh S 6.0 mph9.7 kmh 30.19 in1022.4 mb 0.00 in0.0 mm 0.00 in/hr0.0 mm/hr 0.05 in1.3 mm
07:16 PM 82.4°F28.0°C 68.0°F20.0°C 62% 2.3 mph S3.7 kmh S 6.0 mph9.7 kmh 30.20 in1022.7 mb 0.00 in0.0 mm 0.00 in/hr0.0 mm/hr 0.05 in1.3 mm
07:21 PM 81.9°F27.7°C 67.6°F19.8°C 62% 5.9 mph S9.5 kmh S 6.3 mph10.1 kmh 30.20 in1022.7 mb 0.00 in0.0 mm 0.00 in/hr0.0 mm/hr 0.05 in1.3 mm
07:26 PM 81.2°F27.3°C 66.9°F19.4°C 62% 3.4 mph SSE5.5 kmh SSE 6.3 mph10.1 kmh 30.20 in1022.7 mb 0.00 in0.0 mm 0.00 in/hr0.0 mm/hr 0.05 in1.3 mm
07:31 PM 80.5°F26.9°C 66.7°F19.3°C 63% 4.7 mph SSW7.6 kmh SSW 5.4 mph8.7 kmh 30.20 in1022.7 mb 0.00 in0.0 mm 0.00 in/hr0.0 mm/hr 0.05 in1.3 mm
07:36 PM 79.9°F26.6°C 67.1°F19.5°C 65% 5.3 mph SSW8.5 kmh SSW 5.6 mph9.0 kmh 30.20 in1022.7 mb 0.00 in0.0 mm 0.00 in/hr0.0 mm/hr 0.05 in1.3 mm
07:41 PM 79.9°F26.6°C 67.5°F19.7°C 66% 4.0 mph SSE6.4 kmh SSE 5.6 mph9.0 kmh 30.21 in1023.0 mb 0.00 in0.0 mm 0.00 in/hr0.0 mm/hr 0.05 in1.3 mm
07:46 PM 80.1°F26.7°C 67.2°F19.6°C 65% 5.4 mph S8.7 kmh S 5.4 mph8.7 kmh 30.21 in1023.0 mb 0.00 in0.0 mm 0.00 in/hr0.0 mm/hr 0.05 in1.3 mm
07:51 PM 79.6°F26.4°C 66.3°F19.1°C 64% 3.3 mph ESE5.3 kmh ESE 6.7 mph10.8 kmh 30.21 in1023.0 mb 0.00 in0.0 mm 0.00 in/hr0.0 mm/hr 0.05 in1.3 mm
07:56 PM 79.0°F26.1°C 66.3°F19.1°C 65% 5.0 mph SW8.0 kmh SW 6.7 mph10.8 kmh 30.21 in1023.0 mb 0.00 in0.0 mm 0.00 in/hr0.0 mm/hr 0.05 in1.3 mm
08:01 PM 78.5°F25.8°C 65.7°F18.7°C 65% 4.7 mph SW7.6 kmh SW 6.0 mph9.7 kmh 30.21 in1023.0 mb 0.00 in0.0 mm 0.00 in/hr0.0 mm/hr 0.05 in1.3 mm
08:06 PM 77.8°F25.4°C 65.5°F18.6°C 66% 3.6 mph S5.8 kmh S 5.4 mph8.7 kmh 30.22 in1023.4 mb 0.00 in0.0 mm 0.00 in/hr0.0 mm/hr 0.05 in1.3 mm
08:11 PM 77.0°F25.0°C 65.3°F18.5°C 67% 2.3 mph SW3.7 kmh SW 5.4 mph8.7 kmh 30.22 in1023.4 mb 0.00 in0.0 mm 0.00 in/hr0.0 mm/hr 0.05 in1.3 mm
08:16 PM 76.7°F24.8°C 65.3°F18.5°C 68% 1.3 mph SW2.1 kmh SW 3.8 mph6.1 kmh 30.22 in1023.4 mb 0.00 in0.0 mm 0.00 in/hr0.0 mm/hr 0.05 in1.3 mm
08:21 PM 76.3°F24.6°C 65.0°F18.3°C 68% 1.8 mph SW2.9 kmh SW 4.0 mph6.4 kmh 30.22 in1023.4 mb 0.00 in0.0 mm 0.00 in/hr0.0 mm/hr 0.05 in1.3 mm
08:26 PM 75.6°F24.2°C 64.7°F18.2°C 69% 2.2 mph SW3.5 kmh SW 4.0 mph6.4 kmh 30.22 in1023.4 mb 0.00 in0.0 mm 0.00 in/hr0.0 mm/hr 0.05 in1.3 mm
08:31 PM 75.1°F23.9°C 64.6°F18.1°C 70% 2.3 mph S3.7 kmh S 4.3 mph6.9 kmh 30.22 in1023.4 mb 0.00 in0.0 mm 0.00 in/hr0.0 mm/hr 0.05 in1.3 mm
08:36 PM 74.5°F23.6°C 64.5°F18.1°C 71% 2.6 mph SSW4.2 kmh SSW 4.3 mph6.9 kmh 30.23 in1023.7 mb 0.00 in0.0 mm 0.00 in/hr0.0 mm/hr 0.05 in1.3 mm
08:41 PM 74.2°F23.4°C 64.2°F17.9°C 71% 3.4 mph S5.5 kmh S 3.8 mph6.1 kmh 30.23 in1023.7 mb 0.00 in0.0 mm 0.00 in/hr0.0 mm/hr 0.05 in1.3 mm
08:46 PM 73.8°F23.2°C 64.3°F17.9°C 72% 3.3 mph S5.3 kmh S 6.3 mph10.1 kmh 30.23 in1023.7 mb 0.00 in0.0 mm 0.00 in/hr0.0 mm/hr 0.05 in1.3 mm
08:51 PM 73.8°F23.2°C 64.3°F17.9°C 72% 3.7 mph S6.0 kmh S 6.3 mph10.1 kmh 30.23 in1023.7 mb 0.00 in0.0 mm 0.00 in/hr0.0 mm/hr 0.05 in1.3 mm
08:56 PM 73.6°F23.1°C 64.1°F17.8°C 72% 3.3 mph S5.3 kmh S 5.6 mph9.0 kmh 30.23 in1023.7 mb 0.00 in0.0 mm 0.00 in/hr0.0 mm/hr 0.05 in1.3 mm
09:01 PM 73.4°F23.0°C 64.4°F18.0°C 73% 4.5 mph S7.2 kmh S 7.6 mph12.2 kmh 30.24 in1024.0 mb 0.00 in0.0 mm 0.00 in/hr0.0 mm/hr 0.05 in1.3 mm
09:06 PM 73.3°F22.9°C 64.2°F17.9°C 73% 3.3 mph S5.3 kmh S 7.6 mph12.2 kmh 30.23 in1023.7 mb 0.00 in0.0 mm 0.00 in/hr0.0 mm/hr 0.05 in1.3 mm
09:11 PM 73.1°F22.8°C 64.0°F17.8°C 73% 3.0 mph SE4.8 kmh SE 9.2 mph14.8 kmh 30.24 in1024.0 mb 0.00 in0.0 mm 0.00 in/hr0.0 mm/hr 0.05 in1.3 mm
09:16 PM 72.9°F22.7°C 63.8°F17.7°C 73% 3.1 mph SSE5.0 kmh SSE 9.2 mph14.8 kmh 30.24 in1024.0 mb 0.00 in0.0 mm 0.00 in/hr0.0 mm/hr 0.05 in1.3 mm
09:21 PM 72.7°F22.6°C 63.6°F17.6°C 73% 3.0 mph SSE4.8 kmh SSE 4.7 mph7.6 kmh 30.24 in1024.0 mb 0.00 in0.0 mm 0.00 in/hr0.0 mm/hr 0.05 in1.3 mm
09:26 PM 72.5°F22.5°C 63.8°F17.7°C 74% 2.3 mph S3.7 kmh S 4.7 mph7.6 kmh 30.24 in1024.0 mb 0.00 in0.0 mm 0.00 in/hr0.0 mm/hr 0.05 in1.3 mm
09:31 PM 72.4°F22.4°C 63.6°F17.6°C 74% 3.3 mph SE5.3 kmh SE 4.0 mph6.4 kmh 30.24 in1024.0 mb 0.00 in0.0 mm 0.00 in/hr0.0 mm/hr 0.05 in1.3 mm
09:36 PM 72.2°F22.3°C 63.1°F17.3°C 73% 4.6 mph SE7.4 kmh SE 5.4 mph8.7 kmh 30.24 in1024.0 mb 0.00 in0.0 mm 0.00 in/hr0.0 mm/hr 0.05 in1.3 mm
09:41 PM 72.0°F22.2°C 62.9°F17.2°C 73% 2.3 mph SSE3.7 kmh SSE 5.4 mph8.7 kmh 30.24 in1024.0 mb 0.00 in0.0 mm 0.00 in/hr0.0 mm/hr 0.05 in1.3 mm
09:46 PM 71.8°F22.1°C 63.1°F17.3°C 74% 4.3 mph SSE6.9 kmh SSE 5.1 mph8.2 kmh 30.24 in1024.0 mb 0.00 in0.0 mm 0.00 in/hr0.0 mm/hr 0.05 in1.3 mm
09:51 PM 71.8°F22.1°C 63.1°F17.3°C 74% 1.4 mph SSE2.3 kmh SSE 5.1 mph8.2 kmh 30.24 in1024.0 mb 0.00 in0.0 mm 0.00 in/hr0.0 mm/hr 0.05 in1.3 mm
09:56 PM 71.8°F22.1°C 63.1°F17.3°C 74% 2.2 mph SE3.5 kmh SE 2.9 mph4.7 kmh 30.24 in1024.0 mb 0.00 in0.0 mm 0.00 in/hr0.0 mm/hr 0.05 in1.3 mm
10:02 PM 71.6°F22.0°C 62.9°F17.2°C 74% 3.5 mph SSE5.6 kmh SSE 3.8 mph6.1 kmh 30.25 in1024.4 mb 0.00 in0.0 mm 0.00 in/hr0.0 mm/hr 0.05 in1.3 mm
10:07 PM 71.6°F22.0°C 62.9°F17.2°C 74% 4.1 mph S6.6 kmh S 5.8 mph9.3 kmh 30.25 in1024.4 mb 0.00 in0.0 mm 0.00 in/hr0.0 mm/hr 0.05 in1.3 mm
10:12 PM 71.5°F21.9°C 62.7°F17.1°C 74% 3.2 mph S5.1 kmh S 5.8 mph9.3 kmh 30.24 in1024.0 mb 0.00 in0.0 mm 0.00 in/hr0.0 mm/hr 0.05 in1.3 mm
10:17 PM 71.5°F21.9°C 62.7°F17.1°C 74% 3.2 mph S5.1 kmh S 4.7 mph7.6 kmh 30.25 in1024.4 mb 0.00 in0.0 mm 0.00 in/hr0.0 mm/hr 0.05 in1.3 mm
10:22 PM 71.3°F21.8°C 62.6°F17.0°C 74% 4.9 mph SE7.9 kmh SE 6.3 mph10.1 kmh 30.24 in1024.0 mb 0.00 in0.0 mm 0.00 in/hr0.0 mm/hr 0.05 in1.3 mm
10:27 PM 70.9°F21.6°C 62.6°F17.0°C 75% 5.6 mph SSE9.0 kmh SSE 6.5 mph10.5 kmh 30.25 in1024.4 mb 0.00 in0.0 mm 0.00 in/hr0.0 mm/hr 0.05 in1.3 mm
10:32 PM 70.7°F21.5°C 62.4°F16.9°C 75% 4.5 mph S7.2 kmh S 6.5 mph10.5 kmh 30.25 in1024.4 mb 0.00 in0.0 mm 0.00 in/hr0.0 mm/hr 0.05 in1.3 mm
10:37 PM 70.6°F21.4°C 62.2°F16.8°C 75% 3.3 mph S5.3 kmh S 4.7 mph7.6 kmh 30.25 in1024.4 mb 0.00 in0.0 mm 0.00 in/hr0.0 mm/hr 0.05 in1.3 mm
10:41 PM 70.4°F21.3°C 62.4°F16.9°C 76% 3.1 mph SSE5.0 kmh SSE 4.7 mph7.6 kmh 30.24 in1024.0 mb 0.00 in0.0 mm 0.00 in/hr0.0 mm/hr 0.05 in1.3 mm
10:46 PM 70.2°F21.2°C 62.2°F16.8°C 76% 2.5 mph SE4.0 kmh SE 5.1 mph8.2 kmh 30.24 in1024.0 mb 0.00 in0.0 mm 0.00 in/hr0.0 mm/hr 0.05 in1.3 mm
10:51 PM 70.0°F21.1°C 62.0°F16.7°C 76% 1.8 mph SSE2.9 kmh SSE 5.1 mph8.2 kmh 30.25 in1024.4 mb 0.00 in0.0 mm 0.00 in/hr0.0 mm/hr 0.05 in1.3 mm
10:56 PM 69.8°F21.0°C 61.8°F16.6°C 76% 1.3 mph SSE2.1 kmh SSE 1.8 mph2.9 kmh 30.24 in1024.0 mb 0.00 in0.0 mm 0.00 in/hr0.0 mm/hr 0.05 in1.3 mm
11:02 PM 69.7°F20.9°C 61.7°F16.5°C 76% 0.3 mph SE0.5 kmh SE 1.8 mph2.9 kmh 30.25 in1024.4 mb 0.00 in0.0 mm 0.00 in/hr0.0 mm/hr 0.00 in0.0 mm
11:07 PM 69.5°F20.8°C 61.6°F16.4°C 76% 1.1 mph S1.8 kmh S 2.2 mph3.5 kmh 30.25 in1024.4 mb 0.00 in0.0 mm 0.00 in/hr0.0 mm/hr 0.00 in0.0 mm
11:12 PM 69.1°F20.6°C 61.6°F16.4°C 77% 1.4 mph S2.3 kmh S 2.5 mph4.0 kmh 30.25 in1024.4 mb 0.00 in0.0 mm 0.00 in/hr0.0 mm/hr 0.00 in0.0 mm
11:17 PM 68.9°F20.5°C 61.4°F16.3°C 77% 1.7 mph SSE2.7 kmh SSE 2.5 mph4.0 kmh 30.25 in1024.4 mb 0.00 in0.0 mm 0.00 in/hr0.0 mm/hr 0.00 in0.0 mm
11:22 PM 68.8°F20.4°C 61.3°F16.3°C 77% 0.6 mph SW1.0 kmh SW 1.8 mph2.9 kmh 30.25 in1024.4 mb 0.00 in0.0 mm 0.00 in/hr0.0 mm/hr 0.00 in0.0 mm
11:27 PM 68.4°F20.2°C 61.3°F16.3°C 78% 0.8 mph SW1.3 kmh SW 1.8 mph2.9 kmh 30.25 in1024.4 mb 0.00 in0.0 mm 0.00 in/hr0.0 mm/hr 0.00 in0.0 mm
11:32 PM 68.2°F20.1°C 61.6°F16.4°C 79% 1.9 mph S3.1 kmh S 2.5 mph4.0 kmh 30.25 in1024.4 mb 0.00 in0.0 mm 0.00 in/hr0.0 mm/hr 0.00 in0.0 mm
11:37 PM 68.2°F20.1°C 61.6°F16.4°C 79% 1.5 mph S2.4 kmh S 4.0 mph6.4 kmh 30.25 in1024.4 mb 0.00 in0.0 mm 0.00 in/hr0.0 mm/hr 0.00 in0.0 mm
11:42 PM 68.4°F20.2°C 61.7°F16.5°C 79% 1.9 mph SSW3.1 kmh SSW 4.0 mph6.4 kmh 30.25 in1024.4 mb 0.00 in0.0 mm 0.00 in/hr0.0 mm/hr 0.00 in0.0 mm
11:47 PM 68.4°F20.2°C 62.1°F16.7°C 80% 1.7 mph S2.7 kmh S 2.2 mph3.5 kmh 30.25 in1024.4 mb 0.00 in0.0 mm 0.00 in/hr0.0 mm/hr 0.00 in0.0 mm
11:52 PM 68.6°F20.3°C 62.2°F16.8°C 80% 1.8 mph SE2.9 kmh SE 4.0 mph6.4 kmh 30.25 in1024.4 mb 0.00 in0.0 mm 0.00 in/hr0.0 mm/hr 0.00 in0.0 mm
11:57 PM 68.6°F20.3°C 62.2°F16.8°C 80% 1.7 mph SE2.7 kmh SE 4.0 mph6.4 kmh 30.25 in1024.4 mb 0.00 in0.0 mm 0.00 in/hr0.0 mm/hr 0.00 in0.0 mm